createdAt,value
2023-05-05T00:00:18.814Z,83.42
2023-05-05T00:01:18.705Z,83.21
2023-05-05T00:02:18.433Z,83.31
2023-05-05T00:03:18.732Z,83.72
2023-05-05T00:04:18.862Z,83.92
2023-05-05T00:05:18.950Z,83.92
2023-05-05T00:06:18.868Z,83.51
2023-05-05T00:07:18.237Z,83.51
2023-05-05T00:08:18.918Z,83.21
2023-05-05T00:09:18.843Z,83.21
2023-05-05T00:10:18.473Z,83.51
2023-05-05T00:11:17.965Z,83.42
2023-05-05T00:12:18.384Z,83.72
2023-05-05T00:13:17.894Z,83.11
2023-05-05T00:14:17.996Z,83.42
2023-05-05T00:15:18.001Z,83.21
2023-05-05T00:16:18.008Z,82.90
2023-05-05T00:17:18.097Z,83.11
2023-05-05T00:18:17.943Z,83.62
2023-05-05T00:19:17.919Z,83.62
2023-05-05T00:20:18.055Z,83.72
2023-05-05T00:21:18.036Z,83.72
2023-05-05T00:22:18.044Z,83.21
2023-05-05T00:23:18.045Z,83.82
2023-05-05T00:24:18.164Z,84.17
2023-05-05T00:25:18.284Z,84.47
2023-05-05T00:26:18.284Z,83.86
2023-05-05T00:27:18.383Z,83.96
2023-05-05T00:28:18.083Z,84.27
2023-05-05T00:29:17.787Z,83.56
2023-05-05T00:30:18.093Z,83.86
2023-05-05T00:31:18.241Z,84.37
2023-05-05T00:32:18.322Z,84.47
2023-05-05T00:33:18.120Z,84.78
2023-05-05T00:34:17.738Z,84.78
2023-05-05T00:35:18.634Z,84.88
2023-05-05T00:36:18.177Z,84.88
2023-05-05T00:37:17.947Z,85.19
2023-05-05T00:38:18.500Z,85.28
2023-05-05T00:39:18.761Z,85.28
2023-05-05T00:40:18.684Z,84.88
2023-05-05T00:41:17.700Z,85.08
2023-05-05T00:42:17.685Z,85.28
2023-05-05T00:43:17.693Z,84.58
2023-05-05T00:44:17.700Z,84.06
2023-05-05T00:45:17.721Z,84.67
2023-05-05T00:46:17.715Z,84.67
2023-05-05T00:47:17.712Z,84.58
2023-05-05T00:48:17.720Z,84.47
2023-05-05T00:49:17.667Z,84.17
2023-05-05T00:50:17.738Z,84.47
2023-05-05T00:51:17.651Z,84.47
2023-05-05T00:52:17.753Z,85.08
2023-05-05T00:53:17.872Z,84.98
2023-05-05T00:54:17.873Z,85.19
2023-05-05T00:55:17.874Z,85.08
2023-05-05T00:56:17.873Z,85.28
2023-05-05T00:57:17.887Z,85.19
2023-05-05T00:58:17.632Z,85.39
2023-05-05T00:59:17.598Z,85.80
2023-05-05T01:00:17.697Z,86.21
2023-05-05T01:01:17.933Z,86.10
2023-05-05T01:02:17.918Z,85.80
2023-05-05T01:03:18.001Z,86.21
2023-05-05T01:04:17.941Z,86.30
2023-05-05T01:05:17.634Z,86.00
2023-05-05T01:06:17.840Z,85.60
2023-05-05T01:07:17.544Z,85.90
2023-05-05T01:08:17.752Z,85.80
2023-05-05T01:09:17.562Z,85.86
2023-05-05T01:10:20.633Z,85.69
2023-05-05T01:11:17.487Z,86.16
2023-05-05T01:12:17.514Z,85.80
2023-05-05T01:13:17.605Z,85.80
2023-05-05T01:14:17.612Z,86.00
2023-05-05T01:15:17.506Z,85.86
2023-05-05T01:16:17.643Z,85.75
2023-05-05T01:17:17.565Z,85.96
2023-05-05T01:18:17.722Z,85.66
2023-05-05T01:19:17.421Z,85.86
2023-05-05T01:20:17.425Z,85.55
2023-05-05T01:21:17.434Z,85.75
2023-05-05T01:22:17.450Z,85.66
2023-05-05T01:23:17.454Z,85.86
2023-05-05T01:24:17.506Z,84.88
2023-05-05T01:25:17.488Z,85.19
2023-05-05T01:26:17.381Z,85.19
2023-05-05T01:27:17.376Z,85.80
2023-05-05T01:28:17.387Z,86.10
2023-05-05T01:29:17.394Z,86.00
2023-05-05T01:30:17.396Z,85.80
2023-05-05T01:31:17.457Z,85.90
2023-05-05T01:32:17.413Z,85.69
2023-05-05T01:33:17.420Z,85.86
2023-05-05T01:34:17.439Z,86.10
2023-05-05T01:35:17.434Z,86.10
2023-05-05T01:36:17.346Z,86.21
2023-05-05T01:37:17.462Z,86.10
2023-05-05T01:38:17.362Z,86.51
2023-05-05T01:39:17.322Z,86.61
2023-05-05T01:40:17.367Z,86.86
2023-05-05T01:41:17.299Z,86.86
2023-05-05T01:42:17.381Z,87.16
2023-05-05T01:43:17.387Z,87.06
2023-05-05T01:44:17.283Z,87.16
2023-05-05T01:45:17.522Z,86.86
2023-05-05T01:46:17.625Z,86.96
2023-05-05T01:47:17.671Z,87.57
2023-05-05T01:48:17.253Z,87.61
2023-05-05T01:49:17.568Z,87.82
2023-05-05T01:50:17.338Z,88.02
2023-05-05T01:51:17.654Z,87.71
2023-05-05T01:52:17.239Z,87.71
2023-05-05T01:53:17.355Z,88.43
2023-05-05T01:54:17.737Z,88.22
2023-05-05T01:55:17.486Z,88.22
2023-05-05T01:56:17.573Z,88.43
2023-05-05T01:57:17.790Z,88.78
2023-05-05T01:58:17.807Z,88.98
2023-05-05T01:59:17.806Z,89.08
2023-05-05T02:00:17.816Z,89.28
2023-05-05T02:01:17.644Z,89.18
2023-05-05T02:02:17.142Z,89.39
2023-05-05T02:03:17.705Z,89.49
2023-05-05T02:04:17.134Z,89.28
2023-05-05T02:05:17.143Z,89.18
2023-05-05T02:06:17.137Z,88.98
2023-05-05T02:07:17.160Z,89.28
2023-05-05T02:08:17.263Z,89.28
2023-05-05T02:09:17.166Z,89.49
2023-05-05T02:10:17.159Z,89.08
2023-05-05T02:11:17.083Z,88.88
2023-05-05T02:12:17.101Z,88.57
2023-05-05T02:13:17.283Z,88.98
2023-05-05T02:14:17.116Z,89.08
2023-05-05T02:15:17.116Z,88.98
2023-05-05T02:16:17.232Z,88.88
2023-05-05T02:17:17.125Z,88.98
2023-05-05T02:18:17.125Z,88.78
2023-05-05T02:19:17.146Z,88.98
2023-05-05T02:20:17.146Z,88.06
2023-05-05T02:21:17.163Z,87.71
2023-05-05T02:22:17.159Z,87.51
2023-05-05T02:23:17.166Z,87.30
2023-05-05T02:24:17.268Z,87.30
2023-05-05T02:25:17.282Z,87.41
2023-05-05T02:26:17.285Z,87.61
2023-05-05T02:27:17.616Z,87.41
2023-05-05T02:28:17.320Z,87.51
2023-05-05T02:29:17.097Z,87.57
2023-05-05T02:30:17.424Z,87.82
2023-05-05T02:31:16.955Z,87.37
2023-05-05T02:32:16.921Z,87.71
2023-05-05T02:33:16.949Z,87.20
2023-05-05T02:34:16.938Z,86.69
2023-05-05T02:35:16.948Z,87.16
2023-05-05T02:36:16.938Z,87.16
2023-05-05T02:37:16.967Z,87.26
2023-05-05T02:38:16.961Z,87.30
2023-05-05T02:39:16.876Z,87.30
2023-05-05T02:40:16.871Z,87.41
2023-05-05T02:41:16.888Z,87.00
2023-05-05T02:42:16.891Z,87.30
2023-05-05T02:43:17.075Z,87.71
2023-05-05T02:44:16.918Z,88.32
2023-05-05T02:45:16.923Z,88.93
2023-05-05T02:46:16.941Z,89.04
2023-05-05T02:47:16.933Z,89.49
2023-05-05T02:48:16.924Z,89.59
2023-05-05T02:49:16.929Z,89.39
2023-05-05T02:50:16.834Z,89.39
2023-05-05T02:51:16.954Z,90.10
2023-05-05T02:52:16.957Z,90.66
2023-05-05T02:53:16.962Z,90.35
2023-05-05T02:54:16.766Z,90.25
2023-05-05T02:55:16.982Z,90.25
2023-05-05T02:56:16.979Z,90.35
2023-05-05T02:57:16.882Z,90.55
2023-05-05T02:58:17.106Z,90.55
2023-05-05T02:59:17.118Z,90.66
2023-05-05T03:00:16.810Z,90.66
2023-05-05T03:01:16.740Z,90.96
2023-05-05T03:02:16.874Z,90.86
2023-05-05T03:03:16.919Z,91.02
2023-05-05T03:04:16.940Z,91.22
2023-05-05T03:05:16.942Z,91.12
2023-05-05T03:06:16.958Z,91.02
2023-05-05T03:07:16.673Z,90.92
2023-05-05T03:08:16.670Z,90.81
2023-05-05T03:09:16.670Z,90.71
2023-05-05T03:10:16.684Z,90.31
2023-05-05T03:11:16.778Z,90.31
2023-05-05T03:12:16.796Z,90.61
2023-05-05T03:13:16.902Z,91.12
2023-05-05T03:14:16.907Z,90.51
2023-05-05T03:15:17.023Z,90.41
2023-05-05T03:16:17.076Z,90.71
2023-05-05T03:17:16.926Z,90.77
2023-05-05T03:18:17.148Z,90.57
2023-05-05T03:19:16.607Z,90.36
2023-05-05T03:20:17.279Z,90.57
2023-05-05T03:21:16.560Z,90.47
2023-05-05T03:22:16.774Z,90.06
2023-05-05T03:23:16.575Z,90.06
2023-05-05T03:24:16.861Z,90.77
2023-05-05T03:25:17.088Z,90.67
2023-05-05T03:26:16.589Z,90.98
2023-05-05T03:27:16.551Z,90.88
2023-05-05T03:28:16.520Z,90.98
2023-05-05T03:29:16.534Z,90.77
2023-05-05T03:30:16.530Z,90.88
2023-05-05T03:31:16.592Z,90.47
2023-05-05T03:32:16.532Z,90.22
2023-05-05T03:33:16.505Z,90.42
2023-05-05T03:34:17.316Z,90.32
2023-05-05T03:35:17.153Z,90.63
2023-05-05T03:36:16.650Z,90.53
2023-05-05T03:37:16.550Z,90.73
2023-05-05T03:38:17.447Z,90.42
2023-05-05T03:39:16.467Z,90.94
2023-05-05T03:40:16.475Z,90.94
2023-05-05T03:41:16.482Z,90.42
2023-05-05T03:42:16.422Z,90.42
2023-05-05T03:43:16.433Z,90.08
2023-05-05T03:44:16.493Z,90.28
2023-05-05T03:45:16.616Z,90.08
2023-05-05T03:46:16.479Z,90.08
2023-05-05T03:47:16.735Z,89.26
2023-05-05T03:48:16.541Z,89.67
2023-05-05T03:49:16.451Z,89.16
2023-05-05T03:50:16.431Z,89.67
2023-05-05T03:51:16.755Z,90.03
2023-05-05T03:52:16.361Z,89.42
2023-05-05T03:53:16.371Z,89.12
2023-05-05T03:54:16.373Z,87.08
2023-05-05T03:55:16.385Z,87.49
2023-05-05T03:56:16.496Z,86.47
2023-05-05T03:57:16.507Z,86.22
2023-05-05T03:58:16.408Z,84.19
2023-05-05T03:59:16.425Z,85.37
2023-05-05T04:00:16.533Z,84.15
2023-05-05T04:01:16.735Z,84.15
2023-05-05T04:02:18.477Z,82.68
2023-05-05T04:03:16.998Z,82.89
2023-05-05T04:04:16.385Z,79.80
2023-05-05T04:05:16.463Z,79.50
2023-05-05T04:06:16.972Z,79.25
2023-05-05T04:07:16.587Z,78.30
2023-05-05T04:08:16.984Z,76.51
2023-05-05T04:09:17.100Z,75.25
2023-05-05T04:10:17.120Z,73.19
2023-05-05T04:11:17.090Z,72.96
2023-05-05T04:12:16.308Z,72.61
2023-05-05T04:13:16.410Z,71.70
2023-05-05T04:14:16.345Z,71.97
2023-05-05T04:15:16.341Z,71.88
2023-05-05T04:16:16.464Z,71.57
2023-05-05T04:17:16.547Z,71.26
2023-05-05T04:18:17.744Z,71.67
2023-05-05T04:19:16.236Z,71.06
2023-05-05T04:20:16.572Z,71.44
2023-05-05T04:21:16.777Z,70.52
2023-05-05T04:22:16.681Z,70.93
2023-05-05T04:23:16.893Z,70.32
2023-05-05T04:24:16.900Z,70.32
2023-05-05T04:25:16.195Z,69.68
2023-05-05T04:26:16.287Z,69.89
2023-05-05T04:27:16.711Z,69.89
2023-05-05T04:28:16.200Z,70.18
2023-05-05T04:29:16.214Z,69.58
2023-05-05T04:30:16.543Z,69.34
2023-05-05T04:31:16.996Z,69.45
2023-05-05T04:32:16.945Z,69.34
2023-05-05T04:33:16.233Z,69.55
2023-05-05T04:34:16.939Z,69.65
2023-05-05T04:35:17.099Z,69.34
2023-05-05T04:36:16.268Z,69.51
2023-05-05T04:37:16.086Z,69.21
2023-05-05T04:38:16.092Z,69.21
2023-05-05T04:39:16.080Z,69.11
2023-05-05T04:40:16.081Z,69.01
2023-05-05T04:41:16.094Z,69.51
2023-05-05T04:42:16.089Z,69.42
2023-05-05T04:43:16.113Z,69.21
2023-05-05T04:44:16.254Z,69.42
2023-05-05T04:45:16.026Z,69.31
2023-05-05T04:46:16.164Z,69.62
2023-05-05T04:47:16.030Z,69.51
2023-05-05T04:48:16.043Z,69.89
2023-05-05T04:49:16.051Z,69.78
2023-05-05T04:50:16.064Z,69.98
2023-05-05T04:51:16.177Z,70.29
2023-05-05T04:52:16.164Z,70.09
2023-05-05T04:53:16.286Z,70.19
2023-05-05T04:54:16.003Z,70.29
2023-05-05T04:55:15.978Z,70.69
2023-05-05T04:56:15.939Z,71.20
2023-05-05T04:57:15.923Z,71.30
2023-05-05T04:58:16.013Z,71.50
2023-05-05T04:59:16.008Z,71.60
2023-05-05T05:00:16.030Z,71.91
2023-05-05T05:01:15.905Z,71.80
2023-05-05T05:02:15.997Z,71.70
2023-05-05T05:03:16.071Z,71.67
2023-05-05T05:04:16.029Z,71.67
2023-05-05T05:05:16.034Z,71.77
2023-05-05T05:06:15.962Z,71.87
2023-05-05T05:07:16.041Z,71.73
2023-05-05T05:08:16.056Z,71.64
2023-05-05T05:09:16.071Z,71.73
2023-05-05T05:10:15.840Z,71.73
2023-05-05T05:11:15.841Z,71.73
2023-05-05T05:12:15.849Z,71.64
2023-05-05T05:13:15.980Z,71.80
2023-05-05T05:14:15.940Z,71.60
2023-05-05T05:15:15.990Z,71.91
2023-05-05T05:16:16.072Z,71.80
2023-05-05T05:17:16.094Z,71.70
2023-05-05T05:18:16.079Z,71.57
2023-05-05T05:19:16.252Z,71.97
2023-05-05T05:20:16.149Z,72.38
2023-05-05T05:21:16.244Z,71.77
2023-05-05T05:22:15.759Z,71.97
2023-05-05T05:23:16.008Z,72.17
2023-05-05T05:24:15.837Z,72.58
2023-05-05T05:25:16.097Z,72.47
2023-05-05T05:26:15.712Z,72.78
2023-05-05T05:27:15.839Z,72.88
2023-05-05T05:28:16.318Z,73.28
2023-05-05T05:29:15.905Z,73.32
2023-05-05T05:30:15.969Z,73.52
2023-05-05T05:31:16.021Z,73.79
2023-05-05T05:32:16.166Z,73.79
2023-05-05T05:33:15.859Z,73.99
2023-05-05T05:34:16.148Z,74.08
2023-05-05T05:35:16.198Z,74.32
2023-05-05T05:36:15.765Z,74.43
2023-05-05T05:37:15.986Z,74.83
2023-05-05T05:38:16.080Z,74.43
2023-05-05T05:39:15.613Z,74.59
2023-05-05T05:40:15.644Z,74.52
2023-05-05T05:41:15.616Z,74.59
2023-05-05T05:42:15.624Z,74.59
2023-05-05T05:43:15.588Z,74.29
2023-05-05T05:44:15.653Z,74.79
2023-05-05T05:45:15.693Z,74.59
2023-05-05T05:46:15.667Z,74.49
2023-05-05T05:47:15.687Z,74.49
2023-05-05T05:48:15.808Z,74.29
2023-05-05T05:49:15.714Z,74.29
2023-05-05T05:50:15.737Z,74.39
2023-05-05T05:51:15.744Z,74.69
2023-05-05T05:52:15.765Z,74.59
2023-05-05T05:53:15.779Z,74.79
2023-05-05T05:54:15.785Z,74.59
2023-05-05T05:55:15.795Z,74.49
2023-05-05T05:56:15.796Z,74.35
2023-05-05T05:57:15.821Z,74.35
2023-05-05T05:58:15.828Z,74.35
2023-05-05T05:59:15.836Z,74.46
2023-05-05T06:00:15.883Z,74.55
2023-05-05T06:01:15.520Z,74.15
2023-05-05T06:02:15.911Z,74.55
2023-05-05T06:03:16.018Z,74.86
2023-05-05T06:04:15.570Z,74.46
2023-05-05T06:05:15.842Z,74.55
2023-05-05T06:06:15.553Z,74.55
2023-05-05T06:07:15.811Z,74.35
2023-05-05T06:08:15.969Z,74.46
2023-05-05T06:09:15.406Z,74.55
2023-05-05T06:10:27.226Z,74.76
2023-05-05T06:11:15.411Z,74.66
2023-05-05T06:12:15.456Z,74.86
2023-05-05T06:13:15.560Z,74.76
2023-05-05T06:14:16.318Z,74.96
2023-05-05T06:15:15.699Z,74.96
2023-05-05T06:16:15.815Z,74.82
2023-05-05T06:17:15.549Z,74.82
2023-05-05T06:18:15.479Z,75.02
2023-05-05T06:19:15.545Z,74.73
2023-05-05T06:20:16.016Z,74.49
2023-05-05T06:21:16.001Z,74.29
2023-05-05T06:22:15.730Z,73.88
2023-05-05T06:23:15.320Z,73.65
2023-05-05T06:24:16.162Z,73.85
2023-05-05T06:25:15.308Z,73.95
2023-05-05T06:26:15.642Z,73.04
2023-05-05T06:27:15.670Z,73.35
2023-05-05T06:28:16.224Z,73.51
2023-05-05T06:29:16.132Z,72.81
2023-05-05T06:30:15.372Z,72.20
2023-05-05T06:31:15.281Z,72.71
2023-05-05T06:32:15.311Z,73.31
2023-05-05T06:33:15.375Z,72.91
2023-05-05T06:34:15.451Z,72.47
2023-05-05T06:35:15.280Z,72.37
2023-05-05T06:36:15.447Z,72.07
2023-05-05T06:37:15.324Z,72.87
2023-05-05T06:38:15.674Z,72.27
2023-05-05T06:39:16.142Z,72.27
2023-05-05T06:40:15.235Z,72.37
2023-05-05T06:41:15.179Z,72.67
2023-05-05T06:42:15.167Z,72.37
2023-05-05T06:43:15.156Z,71.87
2023-05-05T06:44:15.192Z,71.43
2023-05-05T06:45:15.191Z,71.43
2023-05-05T06:46:15.188Z,71.63
2023-05-05T06:47:15.825Z,71.47
2023-05-05T06:48:15.232Z,71.67
2023-05-05T06:49:15.252Z,71.87
2023-05-05T06:50:15.261Z,72.50
2023-05-05T06:51:15.262Z,72.41
2023-05-05T06:52:15.283Z,72.37
2023-05-05T06:53:15.296Z,72.37
2023-05-05T06:54:15.308Z,72.57
2023-05-05T06:55:16.115Z,71.97
2023-05-05T06:56:15.089Z,72.27
2023-05-05T06:57:15.084Z,72.37
2023-05-05T06:58:15.085Z,72.97
2023-05-05T06:59:15.098Z,72.87
2023-05-05T07:00:15.130Z,72.81
2023-05-05T07:01:15.220Z,72.10
2023-05-05T07:02:15.027Z,72.81
2023-05-05T07:03:15.234Z,72.50
2023-05-05T07:04:15.059Z,72.71
2023-05-05T07:05:15.190Z,72.81
2023-05-05T07:06:15.222Z,72.50
2023-05-05T07:07:15.191Z,73.00
2023-05-05T07:08:15.000Z,72.81
2023-05-05T07:09:16.989Z,73.41
2023-05-05T07:10:15.087Z,73.21
2023-05-05T07:11:15.127Z,73.31
2023-05-05T07:12:15.184Z,72.84
2023-05-05T07:13:15.004Z,73.14
2023-05-05T07:14:15.293Z,73.44
2023-05-05T07:15:26.752Z,73.75
2023-05-05T07:16:15.363Z,73.51
2023-05-05T07:17:15.347Z,73.81
2023-05-05T07:18:15.374Z,73.21
2023-05-05T07:19:14.934Z,72.61
2023-05-05T07:20:14.942Z,72.50
2023-05-05T07:21:14.990Z,72.91
2023-05-05T07:22:15.046Z,72.20
2023-05-05T07:23:15.082Z,72.91
2023-05-05T07:24:15.151Z,72.84
2023-05-05T07:25:14.958Z,73.11
2023-05-05T07:26:15.247Z,72.54
2023-05-05T07:27:14.873Z,72.91
2023-05-05T07:28:14.878Z,72.81
2023-05-05T07:29:15.414Z,72.41
2023-05-05T07:30:18.121Z,72.10
2023-05-05T07:31:14.831Z,72.30
2023-05-05T07:32:15.164Z,72.50
2023-05-05T07:33:15.444Z,72.37
2023-05-05T07:34:15.571Z,72.53
2023-05-05T07:35:15.420Z,72.64
2023-05-05T07:36:14.803Z,71.60
2023-05-05T07:37:15.607Z,71.40
2023-05-05T07:38:15.261Z,69.99
2023-05-05T07:39:14.770Z,70.43
2023-05-05T07:40:14.782Z,70.83
2023-05-05T07:41:14.772Z,69.92
2023-05-05T07:42:14.914Z,70.32
2023-05-05T07:43:14.764Z,70.93
2023-05-05T07:44:15.035Z,71.30
2023-05-05T07:45:15.035Z,70.09
2023-05-05T07:46:15.236Z,70.93
2023-05-05T07:47:15.146Z,69.52
2023-05-05T07:48:14.792Z,70.03
2023-05-05T07:49:14.753Z,69.32
2023-05-05T07:50:15.337Z,69.82
2023-05-05T07:51:14.674Z,70.93
2023-05-05T07:52:15.483Z,70.83
2023-05-05T07:53:15.422Z,70.43
2023-05-05T07:54:14.775Z,69.92
2023-05-05T07:55:15.124Z,70.43
2023-05-05T07:56:14.653Z,69.42
2023-05-05T07:57:14.685Z,69.52
2023-05-05T07:58:15.425Z,69.72
2023-05-05T07:59:14.881Z,70.53
2023-05-05T08:00:15.045Z,69.39
2023-05-05T08:01:15.316Z,69.49
2023-05-05T08:02:15.314Z,68.79
2023-05-05T08:03:14.616Z,69.35
2023-05-05T08:04:15.520Z,70.06
2023-05-05T08:05:15.355Z,68.85
2023-05-05T08:06:15.080Z,68.85
2023-05-05T08:07:15.450Z,69.19
2023-05-05T08:08:15.629Z,69.06
2023-05-05T08:09:14.558Z,68.76
2023-05-05T08:10:14.563Z,68.52
2023-05-05T08:11:14.554Z,68.39
2023-05-05T08:12:14.620Z,67.65
2023-05-05T08:13:14.696Z,67.08
2023-05-05T08:14:14.569Z,67.45
2023-05-05T08:15:14.789Z,67.05
2023-05-05T08:16:14.924Z,67.22
2023-05-05T08:17:14.941Z,66.42
2023-05-05T08:18:14.652Z,65.92
2023-05-05T08:19:27.581Z,65.92
2023-05-05T08:20:14.936Z,65.15
2023-05-05T08:21:15.163Z,65.18
2023-05-05T08:22:14.514Z,65.58
2023-05-05T08:23:14.742Z,66.28
2023-05-05T08:24:15.179Z,66.88
2023-05-05T08:25:14.943Z,66.68
2023-05-05T08:26:14.475Z,66.11
2023-05-05T08:27:15.304Z,67.42
2023-05-05T08:28:14.472Z,67.22
2023-05-05T08:29:15.017Z,66.52
2023-05-05T08:30:15.189Z,66.52
2023-05-05T08:31:15.453Z,66.61
2023-05-05T08:32:15.336Z,66.21
2023-05-05T08:33:14.719Z,66.52
2023-05-05T08:34:15.094Z,65.81
2023-05-05T08:35:15.326Z,66.44
2023-05-05T08:36:15.462Z,67.05
2023-05-05T08:37:14.348Z,67.02
2023-05-05T08:38:14.386Z,66.11
2023-05-05T08:39:14.476Z,67.05
2023-05-05T08:40:14.674Z,67.22
2023-05-05T08:41:14.327Z,66.82
2023-05-05T08:42:22.440Z,66.88
2023-05-05T08:43:14.461Z,66.11
2023-05-05T08:44:14.607Z,66.61
2023-05-05T08:45:14.707Z,65.91
2023-05-05T08:46:14.389Z,66.95
2023-05-05T08:47:14.370Z,66.85
2023-05-05T08:48:14.602Z,67.35
2023-05-05T08:49:14.741Z,68.05
2023-05-05T08:50:14.870Z,68.02
2023-05-05T08:51:14.382Z,67.52
2023-05-05T08:52:15.087Z,67.32
2023-05-05T08:53:14.512Z,67.52
2023-05-05T08:54:15.269Z,66.11
2023-05-05T08:55:14.997Z,65.88
2023-05-05T08:56:14.234Z,66.68
2023-05-05T08:57:14.256Z,65.98
2023-05-05T08:58:14.243Z,66.52
2023-05-05T08:59:14.229Z,66.71
2023-05-05T09:00:14.210Z,67.02
2023-05-05T09:01:14.363Z,68.02
2023-05-05T09:02:14.369Z,66.99
2023-05-05T09:03:14.677Z,66.58
2023-05-05T09:04:14.181Z,66.48
2023-05-05T09:05:14.157Z,66.45
2023-05-05T09:06:14.212Z,66.15
2023-05-05T09:07:14.202Z,65.98
2023-05-05T09:08:14.188Z,65.88
2023-05-05T09:09:14.193Z,66.18
2023-05-05T09:10:14.124Z,66.88
2023-05-05T09:11:14.134Z,66.48
2023-05-05T09:12:14.232Z,66.38
2023-05-05T09:13:14.270Z,67.22
2023-05-05T09:14:14.218Z,66.82
2023-05-05T09:15:14.144Z,66.58
2023-05-05T09:16:14.316Z,65.65
2023-05-05T09:17:14.297Z,65.65
2023-05-05T09:18:14.313Z,66.15
2023-05-05T09:19:14.344Z,66.35
2023-05-05T09:20:14.381Z,65.68
2023-05-05T09:21:14.346Z,65.98
2023-05-05T09:22:14.358Z,67.08
2023-05-05T09:23:14.401Z,65.88
2023-05-05T09:24:14.383Z,66.05
2023-05-05T09:25:14.418Z,65.55
2023-05-05T09:26:14.447Z,65.42
2023-05-05T09:27:14.428Z,66.09
2023-05-05T09:28:14.024Z,63.89
2023-05-05T09:29:14.482Z,64.18
2023-05-05T09:30:14.467Z,64.69
2023-05-05T09:31:14.483Z,64.95
2023-05-05T09:32:14.489Z,64.65
2023-05-05T09:33:14.579Z,64.55
2023-05-05T09:34:14.068Z,63.85
2023-05-05T09:35:14.543Z,64.59
2023-05-05T09:36:14.258Z,64.48
2023-05-05T09:37:14.006Z,64.51
2023-05-05T09:38:13.946Z,64.78
2023-05-05T09:39:14.023Z,64.45
2023-05-05T09:40:13.964Z,64.75
2023-05-05T09:41:13.937Z,63.65
2023-05-05T09:42:14.198Z,64.59
2023-05-05T09:43:13.937Z,64.69
2023-05-05T09:44:14.308Z,64.45
2023-05-05T09:45:14.378Z,63.68
2023-05-05T09:46:14.184Z,63.95
2023-05-05T09:47:26.027Z,64.25
2023-05-05T09:48:13.986Z,64.86
2023-05-05T09:49:13.880Z,65.52
2023-05-05T09:50:13.930Z,63.45
2023-05-05T09:51:13.884Z,62.95
2023-05-05T09:52:13.849Z,63.75
2023-05-05T09:53:13.846Z,63.35
2023-05-05T09:54:13.823Z,63.72
2023-05-05T09:55:13.897Z,63.32
2023-05-05T09:56:13.886Z,63.62
2023-05-05T09:57:13.967Z,63.09
2023-05-05T09:58:14.047Z,64.46
2023-05-05T09:59:13.784Z,63.60
2023-05-05T10:00:13.948Z,61.71
2023-05-05T10:01:13.884Z,62.53
2023-05-05T10:02:13.961Z,63.26
2023-05-05T10:03:14.015Z,63.06
2023-05-05T10:04:13.986Z,62.73
2023-05-05T10:05:14.098Z,62.83
2023-05-05T10:06:14.005Z,62.40
2023-05-05T10:07:13.941Z,63.90
2023-05-05T10:08:13.752Z,60.80
2023-05-05T10:09:13.721Z,61.73
2023-05-05T10:10:13.726Z,61.63
2023-05-05T10:11:13.851Z,61.36
2023-05-05T10:12:13.923Z,61.87
2023-05-05T10:13:13.724Z,62.26
2023-05-05T10:14:14.014Z,61.16
2023-05-05T10:15:13.898Z,61.16
2023-05-05T10:16:13.756Z,62.39
2023-05-05T10:17:13.971Z,62.42
2023-05-05T10:18:13.724Z,63.12
2023-05-05T10:19:14.182Z,62.52
2023-05-05T10:20:14.188Z,62.32
2023-05-05T10:21:13.759Z,62.89
2023-05-05T10:22:13.811Z,62.46
2023-05-05T10:23:14.245Z,63.80
2023-05-05T10:24:14.239Z,60.91
2023-05-05T10:25:14.252Z,61.00
2023-05-05T10:26:13.837Z,62.01
2023-05-05T10:27:13.578Z,61.77
2023-05-05T10:28:14.148Z,59.75
2023-05-05T10:29:14.108Z,59.52
2023-05-05T10:30:14.332Z,58.42
2023-05-05T10:31:24.150Z,59.05
2023-05-05T10:32:37.066Z,60.31
2023-05-05T10:33:30.304Z,61.21
2023-05-05T10:34:14.064Z,60.83
2023-05-05T10:35:13.734Z,61.04
2023-05-05T10:36:14.136Z,62.16
2023-05-05T10:37:13.537Z,62.59
2023-05-05T10:38:13.579Z,63.39
2023-05-05T10:39:13.531Z,62.53
2023-05-05T10:40:13.582Z,62.40
2023-05-05T10:41:13.629Z,61.18
2023-05-05T10:42:13.517Z,61.08
2023-05-05T10:43:13.735Z,61.15
2023-05-05T10:44:13.512Z,61.19
2023-05-05T10:45:13.489Z,59.06
2023-05-05T10:46:13.589Z,58.54
2023-05-05T10:47:13.531Z,59.34
2023-05-05T10:48:13.749Z,58.61
2023-05-05T10:49:13.645Z,57.71
2023-05-05T10:50:13.550Z,58.48
2023-05-05T10:51:18.836Z,56.77
2023-05-05T10:52:13.421Z,56.49
2023-05-05T10:53:13.435Z,57.12
2023-05-05T10:54:13.487Z,57.94
2023-05-05T10:55:13.462Z,57.47
2023-05-05T10:56:13.467Z,58.89
2023-05-05T10:57:13.390Z,58.97
2023-05-05T10:58:13.396Z,59.27
2023-05-05T10:59:13.372Z,57.77
2023-05-05T11:00:15.063Z,58.11
2023-05-05T11:01:13.582Z,57.19
2023-05-05T11:02:13.552Z,55.94
2023-05-05T11:03:13.414Z,55.22
2023-05-05T11:04:13.348Z,54.33
2023-05-05T11:05:13.435Z,54.55
2023-05-05T11:06:13.384Z,54.53
2023-05-05T11:07:15.379Z,55.63
2023-05-05T11:08:13.329Z,56.62
2023-05-05T11:09:13.334Z,55.70
2023-05-05T11:10:13.356Z,55.57
2023-05-05T11:11:13.306Z,54.25
2023-05-05T11:12:13.375Z,54.46
2023-05-05T11:13:13.411Z,55.15
2023-05-05T11:14:13.287Z,53.93
2023-05-05T11:15:13.415Z,52.91
2023-05-05T11:16:13.467Z,54.90
2023-05-05T11:17:13.273Z,53.51
2023-05-05T11:18:13.502Z,53.73
2023-05-05T11:19:13.470Z,54.31
2023-05-05T11:20:13.531Z,55.73
2023-05-05T11:21:13.489Z,56.07
2023-05-05T11:22:13.396Z,53.93
2023-05-05T11:23:16.642Z,54.65
2023-05-05T11:24:13.523Z,55.05
2023-05-05T11:25:13.539Z,54.53
2023-05-05T11:26:13.185Z,55.49
2023-05-05T11:27:13.313Z,53.38
2023-05-05T11:28:13.156Z,53.66
2023-05-05T11:29:13.196Z,53.96
2023-05-05T11:30:13.386Z,53.16
2023-05-05T11:31:13.181Z,53.73
2023-05-05T11:32:13.179Z,52.54
2023-05-05T11:33:13.228Z,52.44
2023-05-05T11:34:13.159Z,52.61
2023-05-05T11:35:13.321Z,53.90
2023-05-05T11:36:13.240Z,53.31
2023-05-05T11:37:13.235Z,54.25
2023-05-05T11:38:13.376Z,55.07
2023-05-05T11:39:13.446Z,53.48
2023-05-05T11:40:13.482Z,54.46
2023-05-05T11:41:13.073Z,55.52
2023-05-05T11:42:13.609Z,55.00
2023-05-05T11:43:13.687Z,56.55
2023-05-05T11:44:13.497Z,58.12
2023-05-05T11:45:13.675Z,59.02
2023-05-05T11:46:13.733Z,59.66
2023-05-05T11:47:13.124Z,57.94
2023-05-05T11:48:13.359Z,56.87
2023-05-05T11:49:13.699Z,58.17
2023-05-05T11:50:13.434Z,57.80
2023-05-05T11:51:13.127Z,57.67
2023-05-05T11:52:13.887Z,57.70
2023-05-05T11:53:13.501Z,56.10
2023-05-05T11:54:13.340Z,56.27
2023-05-05T11:55:12.980Z,55.82
2023-05-05T11:56:13.934Z,54.97
2023-05-05T11:57:13.046Z,54.43
2023-05-05T11:58:12.983Z,54.00
2023-05-05T11:59:13.061Z,52.61
2023-05-05T12:00:13.378Z,52.31
2023-05-05T12:01:13.199Z,53.31
2023-05-05T12:02:12.953Z,52.19
2023-05-05T12:03:13.013Z,53.78
2023-05-05T12:04:13.136Z,53.06
2023-05-05T12:05:12.998Z,51.57
2023-05-05T12:06:13.050Z,52.22
2023-05-05T12:07:13.130Z,52.51
2023-05-05T12:08:13.178Z,53.56
2023-05-05T12:09:13.241Z,51.35
2023-05-05T12:10:12.941Z,51.45
2023-05-05T12:11:13.351Z,51.42
2023-05-05T12:12:13.019Z,50.71
2023-05-05T12:13:12.934Z,50.21
2023-05-05T12:14:13.347Z,49.89
2023-05-05T12:15:13.535Z,49.77
2023-05-05T12:16:12.962Z,49.37
2023-05-05T12:17:12.897Z,47.91
2023-05-05T12:18:12.966Z,48.90
2023-05-05T12:19:12.865Z,49.00
2023-05-05T12:20:13.151Z,49.42
2023-05-05T12:21:12.951Z,49.02
2023-05-05T12:22:12.993Z,48.94
2023-05-05T12:23:13.053Z,48.57
2023-05-05T12:24:13.098Z,51.20
2023-05-05T12:25:12.808Z,51.62
2023-05-05T12:26:13.201Z,52.42
2023-05-05T12:27:13.276Z,50.95
2023-05-05T12:28:13.309Z,51.57
2023-05-05T12:29:13.368Z,52.14
2023-05-05T12:30:12.949Z,53.27
2023-05-05T12:31:13.286Z,53.78
2023-05-05T12:32:13.542Z,54.28
2023-05-05T12:33:12.718Z,54.38
2023-05-05T12:34:12.733Z,54.58
2023-05-05T12:35:12.797Z,54.61
2023-05-05T12:36:12.727Z,55.01
2023-05-05T12:37:12.931Z,56.21
2023-05-05T12:38:13.008Z,55.01
2023-05-05T12:39:13.069Z,54.41
2023-05-05T12:40:13.144Z,55.61
2023-05-05T12:41:12.704Z,55.31
2023-05-05T12:42:12.937Z,54.64
2023-05-05T12:43:13.373Z,55.43
2023-05-05T12:44:12.770Z,55.13
2023-05-05T12:45:12.669Z,54.94
2023-05-05T12:46:12.688Z,55.04
2023-05-05T12:47:12.637Z,55.83
2023-05-05T12:48:12.853Z,55.04
2023-05-05T12:49:12.693Z,55.13
2023-05-05T12:50:12.676Z,54.83
2023-05-05T12:51:13.510Z,55.43
2023-05-05T12:52:13.411Z,56.66